createdAt,value
2018-11-28T00:00:10.903Z,39.47
2018-11-28T00:02:39.058Z,38.30
2018-11-28T00:05:10.128Z,40.00
2018-11-28T00:07:38.488Z,34.97
2018-11-28T00:10:12.556Z,37.27
2018-11-28T00:12:41.051Z,36.70
2018-11-28T00:15:10.403Z,31.60
2018-11-28T00:17:38.548Z,42.17
2018-11-28T00:20:09.327Z,39.77
2018-11-28T00:22:37.555Z,36.87
2018-11-28T00:25:06.300Z,33.20
2018-11-28T00:27:34.468Z,40.23
2018-11-28T00:30:02.651Z,36.37
2018-11-28T00:32:30.812Z,44.73
2018-11-28T00:34:58.956Z,33.70
2018-11-28T00:37:27.116Z,37.07
2018-11-28T00:39:55.264Z,40.53
2018-11-28T00:42:27.675Z,35.30
2018-11-28T00:44:55.820Z,38.40
2018-11-28T00:47:23.975Z,36.40
2018-11-28T00:49:52.135Z,40.07
2018-11-28T00:52:20.287Z,36.50
2018-11-28T00:54:48.443Z,37.10
2018-11-28T00:57:16.596Z,37.13
2018-11-28T00:59:44.858Z,34.43
2018-11-28T01:02:13.002Z,39.47
2018-11-28T01:04:41.157Z,32.20
2018-11-28T01:07:09.316Z,36.10
2018-11-28T01:09:37.476Z,35.30
2018-11-28T01:12:05.735Z,33.60
2018-11-28T01:14:33.893Z,34.80
2018-11-28T01:17:02.060Z,31.23
2018-11-28T01:19:30.219Z,35.43
2018-11-28T01:21:58.368Z,42.40
2018-11-28T01:24:26.622Z,34.50
2018-11-28T01:26:54.780Z,38.80
2018-11-28T01:29:22.933Z,31.90
2018-11-28T01:31:51.073Z,34.70
2018-11-28T01:34:19.216Z,40.00
2018-11-28T01:36:47.348Z,40.80
2018-11-28T01:39:15.490Z,33.50
2018-11-28T01:41:43.623Z,36.23
2018-11-28T01:44:11.764Z,35.60
2018-11-28T01:46:39.948Z,36.13
2018-11-28T01:49:08.100Z,34.23
2018-11-28T01:51:36.233Z,37.40
2018-11-28T01:54:04.795Z,37.30
2018-11-28T01:56:32.924Z,36.73
2018-11-28T01:59:01.104Z,40.37
2018-11-28T02:01:29.240Z,36.07
2018-11-28T02:03:57.384Z,33.23
2018-11-28T02:06:25.524Z,34.53
2018-11-28T02:08:53.663Z,36.40
2018-11-28T02:11:21.796Z,36.47
2018-11-28T02:13:49.943Z,38.10
2018-11-28T02:16:18.129Z,36.70
2018-11-28T02:18:46.220Z,36.87
2018-11-28T02:21:14.357Z,37.47
2018-11-28T02:23:42.525Z,33.53
2018-11-28T02:26:10.668Z,39.60
2018-11-28T02:28:38.837Z,39.00
2018-11-28T02:31:07.033Z,40.70
2018-11-28T02:33:35.194Z,41.60
2018-11-28T02:36:03.355Z,37.13
2018-11-28T02:38:31.508Z,35.50
2018-11-28T02:40:59.673Z,38.57
2018-11-28T02:43:27.819Z,34.80
2018-11-28T02:46:07.397Z,38.67
2018-11-28T02:48:35.561Z,36.07
2018-11-28T02:51:03.712Z,33.80
2018-11-28T02:53:31.871Z,39.93
2018-11-28T02:56:00.041Z,38.70
2018-11-28T02:58:28.192Z,46.10
2018-11-28T03:00:56.357Z,36.73
2018-11-28T03:03:24.537Z,34.67
2018-11-28T03:05:52.697Z,32.77
2018-11-28T03:08:20.875Z,38.33
2018-11-28T03:10:49.029Z,33.20
2018-11-28T03:13:17.185Z,39.10
2018-11-28T03:15:47.084Z,33.63
2018-11-28T03:18:15.224Z,34.70
2018-11-28T03:20:43.385Z,32.27
2018-11-28T03:23:11.530Z,35.60
2018-11-28T03:25:39.684Z,35.77
2018-11-28T03:28:07.844Z,38.60
2018-11-28T03:30:35.997Z,38.13
2018-11-28T03:33:04.277Z,41.17
2018-11-28T03:35:32.440Z,33.57
2018-11-28T03:38:00.620Z,33.40
2018-11-28T03:40:28.796Z,38.17
2018-11-28T03:42:56.940Z,36.00
2018-11-28T03:45:25.097Z,34.07
2018-11-28T03:47:53.268Z,37.00
2018-11-28T03:50:21.456Z,34.87
2018-11-28T03:52:49.611Z,37.77
2018-11-28T03:55:17.796Z,35.97
2018-11-28T03:57:47.072Z,33.63
2018-11-28T04:00:19.187Z,33.33
2018-11-28T04:02:47.644Z,37.93
2018-11-28T04:05:15.794Z,34.63
2018-11-28T04:07:43.945Z,34.77
2018-11-28T04:10:12.996Z,34.90
2018-11-28T04:12:41.679Z,37.07
2018-11-28T04:15:12.990Z,38.33
2018-11-28T04:17:41.199Z,37.60
2018-11-28T04:20:14.948Z,39.53
2018-11-28T04:22:43.091Z,37.00
2018-11-28T04:25:11.983Z,40.37
2018-11-28T04:27:40.176Z,36.80
2018-11-28T04:30:13.444Z,34.20
2018-11-28T04:32:41.590Z,32.10
2018-11-28T04:35:11.144Z,33.40
2018-11-28T04:37:39.298Z,43.67
2018-11-28T04:40:10.876Z,35.33
2018-11-28T04:42:39.161Z,36.87
2018-11-28T04:45:09.276Z,41.97
2018-11-28T04:47:37.434Z,40.23
2018-11-28T04:50:07.301Z,39.57
2018-11-28T04:52:35.450Z,38.30
2018-11-28T04:55:04.236Z,38.30
2018-11-28T04:57:32.397Z,36.73
2018-11-28T05:00:00.558Z,43.03
2018-11-28T05:02:28.712Z,36.53
2018-11-28T05:04:56.865Z,37.33
2018-11-28T05:07:26.368Z,44.23
2018-11-28T05:09:54.730Z,41.43
2018-11-28T05:12:23.015Z,37.90
2018-11-28T05:14:51.680Z,38.40
2018-11-28T05:17:19.993Z,38.17
2018-11-28T05:19:48.137Z,39.20
2018-11-28T05:22:16.296Z,41.80
2018-11-28T05:24:44.501Z,37.67
2018-11-28T05:27:12.637Z,45.13
2018-11-28T05:29:40.780Z,35.20
2018-11-28T05:32:08.980Z,39.37
2018-11-28T05:34:37.132Z,37.57
2018-11-28T05:37:05.824Z,36.50
2018-11-28T05:39:33.976Z,41.70
2018-11-28T05:42:02.137Z,52.30
2018-11-28T05:44:30.285Z,41.90
2018-11-28T05:46:58.458Z,34.60
2018-11-28T05:49:26.609Z,33.40
2018-11-28T05:51:54.764Z,33.63
2018-11-28T05:54:22.925Z,38.70
2018-11-28T05:56:51.104Z,37.67
2018-11-28T05:59:19.259Z,39.20
2018-11-28T06:01:47.421Z,43.90
2018-11-28T06:04:15.583Z,38.47
2018-11-28T06:06:43.736Z,39.07
2018-11-28T06:09:11.884Z,39.57
2018-11-28T06:11:40.043Z,33.47
2018-11-28T06:14:08.448Z,42.20
2018-11-28T06:16:37.487Z,36.03
2018-11-28T06:19:06.581Z,32.80
2018-11-28T06:21:34.757Z,38.37
2018-11-28T06:24:02.922Z,38.40
2018-11-28T06:26:31.100Z,40.73
2018-11-28T06:28:59.280Z,44.30
2018-11-28T06:31:27.445Z,47.10
2018-11-28T06:33:55.597Z,36.57
2018-11-28T06:36:23.760Z,36.33
2018-11-28T06:38:51.912Z,42.07
2018-11-28T06:41:20.075Z,34.10
2018-11-28T06:43:48.256Z,47.07
2018-11-28T06:46:16.400Z,40.97
2018-11-28T06:48:44.563Z,37.87
2018-11-28T06:51:12.708Z,40.10
2018-11-28T06:53:40.875Z,45.73
2018-11-28T06:56:09.019Z,39.10
2018-11-28T06:58:37.179Z,44.50
2018-11-28T07:01:06.221Z,37.20
2018-11-28T07:03:34.376Z,40.23
2018-11-28T07:06:02.520Z,41.87
2018-11-28T07:08:30.676Z,40.27
2018-11-28T07:10:58.829Z,38.30
2018-11-28T07:13:26.993Z,35.90
2018-11-28T07:15:55.140Z,42.10
2018-11-28T07:18:34.603Z,43.63
2018-11-28T07:21:02.755Z,42.03
2018-11-28T07:23:30.920Z,51.60
2018-11-28T07:25:59.068Z,44.53
2018-11-28T07:28:27.240Z,38.27
2018-11-28T07:30:55.388Z,44.40
2018-11-28T07:33:23.553Z,43.37
2018-11-28T07:35:51.705Z,43.87
2018-11-28T07:38:19.867Z,41.87
2018-11-28T07:40:48.013Z,39.40
2018-11-28T07:43:16.173Z,41.07
2018-11-28T07:45:46.137Z,39.23
2018-11-28T07:48:14.275Z,39.20
2018-11-28T07:50:42.433Z,41.90
2018-11-28T07:53:10.584Z,38.77
2018-11-28T07:55:38.736Z,38.93
2018-11-28T07:58:07.172Z,40.57
2018-11-28T08:00:36.189Z,42.20
2018-11-28T08:03:05.707Z,41.67
2018-11-28T08:05:33.957Z,41.30
2018-11-28T08:08:02.106Z,41.60
2018-11-28T08:10:30.251Z,39.40
2018-11-28T08:12:58.594Z,36.83
2018-11-28T08:15:26.994Z,39.67
2018-11-28T08:17:55.016Z,36.80
2018-11-28T08:20:23.163Z,39.07
2018-11-28T08:22:51.092Z,41.03
2018-11-28T08:25:19.252Z,45.03
2018-11-28T08:27:48.511Z,37.70
2018-11-28T08:30:19.898Z,47.73
2018-11-28T08:32:47.860Z,40.07
2018-11-28T08:35:16.023Z,32.77
2018-11-28T08:37:44.259Z,41.00
2018-11-28T08:40:15.523Z,40.10
2018-11-28T08:42:43.751Z,41.67
2018-11-28T08:45:13.311Z,37.50
2018-11-28T08:47:41.481Z,36.53
2018-11-28T08:50:15.057Z,38.23
2018-11-28T08:52:43.235Z,43.00
2018-11-28T08:55:12.279Z,37.17
2018-11-28T08:57:40.424Z,39.93
2018-11-28T09:00:19.693Z,34.60
2018-11-28T09:02:48.896Z,43.90
2018-11-28T09:05:17.056Z,45.47
2018-11-28T09:07:45.279Z,38.20
2018-11-28T09:10:15.523Z,39.70
2018-11-28T09:12:44.052Z,42.47
2018-11-28T09:15:14.200Z,38.80
2018-11-28T09:17:42.366Z,38.00
2018-11-28T09:20:12.562Z,43.57
2018-11-28T09:22:40.712Z,41.37
2018-11-28T09:25:10.465Z,38.37
2018-11-28T09:27:38.624Z,39.83
2018-11-28T09:30:13.456Z,34.73
2018-11-28T09:32:41.617Z,40.87
2018-11-28T09:35:10.693Z,39.97
2018-11-28T09:37:38.820Z,37.80
2018-11-28T09:40:10.816Z,38.07
2018-11-28T09:42:39.248Z,38.80
2018-11-28T09:45:09.200Z,39.83
2018-11-28T09:47:37.408Z,43.33
2018-11-28T09:50:09.755Z,40.70
2018-11-28T09:52:37.915Z,37.13
2018-11-28T09:55:07.332Z,37.87
2018-11-28T09:57:35.489Z,43.07
2018-11-28T10:00:03.930Z,36.10
2018-11-28T10:02:32.080Z,38.43
2018-11-28T10:05:02.677Z,37.43
2018-11-28T10:07:28.410Z,34.20
2018-11-28T10:09:56.580Z,35.93
2018-11-28T10:12:24.732Z,35.30
2018-11-28T10:14:52.897Z,34.30
2018-11-28T10:17:21.948Z,45.50
2018-11-28T10:19:50.109Z,45.10
2018-11-28T10:22:18.269Z,39.80
2018-11-28T10:24:46.448Z,43.80
2018-11-28T10:27:14.596Z,39.20
2018-11-28T10:29:42.764Z,41.30
2018-11-28T10:32:10.916Z,36.60
2018-11-28T10:34:39.088Z,37.10
2018-11-28T10:37:07.244Z,38.57
2018-11-28T10:39:35.400Z,37.57
2018-11-28T10:42:03.557Z,33.77
2018-11-28T10:44:31.727Z,40.87
2018-11-28T10:46:59.880Z,45.40
2018-11-28T10:49:28.019Z,38.80
2018-11-28T10:51:56.211Z,33.67
2018-11-28T10:54:24.345Z,31.23
2018-11-28T10:56:52.484Z,31.63
2018-11-28T10:59:20.633Z,36.10
2018-11-28T11:01:51.882Z,30.20
2018-11-28T11:04:24.416Z,27.53
2018-11-28T11:06:58.152Z,32.13
2018-11-28T11:09:31.833Z,34.70
2018-11-28T11:12:06.760Z,32.50
2018-11-28T11:14:40.261Z,27.57
2018-11-28T11:17:08.392Z,31.50
2018-11-28T11:19:36.548Z,34.13
2018-11-28T11:22:05.165Z,37.30
2018-11-28T11:24:33.309Z,30.40
2018-11-28T11:27:01.497Z,27.70
2018-11-28T11:29:29.633Z,30.53
2018-11-28T11:31:57.807Z,30.50
2018-11-28T11:34:25.957Z,27.93
2018-11-28T11:36:54.105Z,35.63
2018-11-28T11:39:22.255Z,29.30
2018-11-28T11:41:50.400Z,27.93
2018-11-28T11:44:18.541Z,42.13
2018-11-28T11:46:46.725Z,29.70
2018-11-28T11:49:14.879Z,30.17
2018-11-28T11:51:43.078Z,31.93
2018-11-28T11:54:11.216Z,36.77
2018-11-28T11:56:39.397Z,36.00
2018-11-28T11:59:07.569Z,25.03
2018-11-28T12:01:35.725Z,32.10
2018-11-28T12:04:03.907Z,23.13
2018-11-28T12:06:32.069Z,27.53
2018-11-28T12:09:00.316Z,29.63
2018-11-28T12:11:28.468Z,24.03
2018-11-28T12:13:56.623Z,28.27
2018-11-28T12:16:24.788Z,27.03
2018-11-28T12:18:52.944Z,25.70
2018-11-28T12:21:21.113Z,26.60
2018-11-28T12:23:49.260Z,25.33
2018-11-28T12:26:17.429Z,26.17
2018-11-28T12:28:45.576Z,26.43
2018-11-28T12:31:13.840Z,26.07
2018-11-28T12:33:41.993Z,33.23
2018-11-28T12:36:10.192Z,29.83
2018-11-28T12:38:38.345Z,24.57
2018-11-28T12:41:06.748Z,26.80
2018-11-28T12:43:35.015Z,22.53
2018-11-28T12:46:03.173Z,25.73
2018-11-28T12:48:31.326Z,25.60
2018-11-28T12:50:59.504Z,25.63
2018-11-28T12:53:27.652Z,22.77
2018-11-28T12:55:55.808Z,24.97
2018-11-28T12:58:23.960Z,21.13
2018-11-28T13:00:52.112Z,25.47
2018-11-28T13:03:20.328Z,27.13
2018-11-28T13:05:48.541Z,26.53
2018-11-28T13:08:16.701Z,44.23
2018-11-28T13:10:44.861Z,31.30
2018-11-28T13:13:13.095Z,36.70
2018-11-28T13:15:41.232Z,30.70
2018-11-28T13:18:10.360Z,37.43
2018-11-28T13:20:39.438Z,37.50
2018-11-28T13:23:08.358Z,30.13
2018-11-28T13:25:36.505Z,27.07
2018-11-28T13:28:04.667Z,30.57
2018-11-28T13:30:32.858Z,29.20
2018-11-28T13:33:01.112Z,26.53
2018-11-28T13:35:29.260Z,31.03
2018-11-28T13:38:00.876Z,28.83
2018-11-28T13:40:29.017Z,34.10
2018-11-28T13:42:57.164Z,27.13
2018-11-28T13:45:28.243Z,28.93
2018-11-28T13:47:56.537Z,31.67
2018-11-28T13:50:24.745Z,23.80
2018-11-28T13:52:53.736Z,23.47
2018-11-28T13:55:39.777Z,21.07
2018-11-28T13:57:58.541Z,25.23
2018-11-28T14:00:26.688Z,22.60
2018-11-28T14:02:54.851Z,22.10
2018-11-28T14:05:22.997Z,22.20
2018-11-28T14:07:51.152Z,24.43
2018-11-28T14:10:19.324Z,23.90
2018-11-28T14:12:47.480Z,23.53
2018-11-28T14:15:23.745Z,27.13
2018-11-28T14:17:56.081Z,21.50
2018-11-28T14:20:24.220Z,22.53
2018-11-28T14:22:52.375Z,21.83
2018-11-28T14:25:20.525Z,20.67
2018-11-28T14:27:48.748Z,21.83
2018-11-28T14:30:21.909Z,21.47
2018-11-28T14:32:50.717Z,20.50
2018-11-28T14:35:19.153Z,22.17
2018-11-28T14:37:47.323Z,20.73
2018-11-28T14:40:16.433Z,19.23
2018-11-28T14:42:46.565Z,19.80
2018-11-28T14:45:17.532Z,18.40
2018-11-28T14:47:46.185Z,25.73
2018-11-28T14:50:17.829Z,22.00
2018-11-28T14:52:46.028Z,25.03
2018-11-28T14:55:19.139Z,21.30
2018-11-28T14:57:47.243Z,19.67
2018-11-28T15:00:22.707Z,20.37
2018-11-28T15:02:53.885Z,18.93
2018-11-28T15:05:27.260Z,20.33
2018-11-28T15:07:58.317Z,21.97
2018-11-28T15:10:39.437Z,19.83
2018-11-28T15:13:07.644Z,19.00
2018-11-28T15:15:35.764Z,23.30
2018-11-28T15:18:03.905Z,21.20
2018-11-28T15:20:32.041Z,17.70
2018-11-28T15:23:00.196Z,20.50
2018-11-28T15:25:28.319Z,19.83
2018-11-28T15:27:56.453Z,20.90
2018-11-28T15:30:24.585Z,19.70
2018-11-28T15:32:52.723Z,20.20
2018-11-28T15:35:20.961Z,21.47
2018-11-28T15:37:49.120Z,18.20
2018-11-28T15:40:17.248Z,22.97
2018-11-28T15:42:45.384Z,18.17
2018-11-28T15:45:13.534Z,23.93
2018-11-28T15:47:41.697Z,22.90
2018-11-28T15:50:09.857Z,23.57
2018-11-28T15:52:38.020Z,20.57
2018-11-28T15:55:07.725Z,21.23
2018-11-28T15:57:35.876Z,23.30
2018-11-28T16:00:04.579Z,18.03
2018-11-28T16:02:32.739Z,19.83
2018-11-28T16:05:00.888Z,19.97
2018-11-28T16:07:29.040Z,20.40
2018-11-28T16:10:02.436Z,21.30
2018-11-28T16:12:30.584Z,21.30
2018-11-28T16:14:58.745Z,21.97
2018-11-28T16:17:26.988Z,18.80
2018-11-28T16:19:55.149Z,21.97
2018-11-28T16:22:23.326Z,18.70
2018-11-28T16:24:51.485Z,26.63
2018-11-28T16:27:19.731Z,19.57
2018-11-28T16:29:48.080Z,23.93
2018-11-28T16:32:16.224Z,20.47
2018-11-28T16:34:44.621Z,23.33
2018-11-28T16:37:12.557Z,34.90
2018-11-28T16:39:40.713Z,23.33
2018-11-28T16:42:08.866Z,22.93
2018-11-28T16:44:37.016Z,27.03
2018-11-28T16:47:05.493Z,25.90
2018-11-28T16:49:33.660Z,25.33
2018-11-28T16:52:01.824Z,23.50
2018-11-28T16:54:29.976Z,24.83
2018-11-28T16:56:58.119Z,22.60
2018-11-28T16:59:30.675Z,22.87
2018-11-28T17:01:54.483Z,25.17
2018-11-28T17:04:22.636Z,24.43
2018-11-28T17:06:50.799Z,25.00
2018-11-28T17:09:18.968Z,30.27
2018-11-28T17:11:47.129Z,27.93
2018-11-28T17:14:15.295Z,25.43
2018-11-28T17:16:43.447Z,26.90
2018-11-28T17:19:11.612Z,34.33
2018-11-28T17:21:39.765Z,29.60
2018-11-28T17:24:07.927Z,27.13
2018-11-28T17:26:36.087Z,29.20
2018-11-28T17:29:04.261Z,28.07
2018-11-28T17:31:32.416Z,26.23
2018-11-28T17:34:00.649Z,28.60
2018-11-28T17:36:28.776Z,27.30
2018-11-28T17:38:56.936Z,29.13
2018-11-28T17:41:25.113Z,29.50
2018-11-28T17:43:53.344Z,28.27
2018-11-28T17:46:21.494Z,30.13
2018-11-28T17:48:49.700Z,29.50
2018-11-28T17:51:17.840Z,26.73
2018-11-28T17:53:45.976Z,29.37
2018-11-28T17:56:14.119Z,29.20
2018-11-28T17:58:42.271Z,26.57
2018-11-28T18:01:10.423Z,25.20
2018-11-28T18:03:38.551Z,24.83
2018-11-28T18:06:06.688Z,26.83
2018-11-28T18:08:34.836Z,33.10
2018-11-28T18:11:10.294Z,33.50
2018-11-28T18:13:39.586Z,26.67
2018-11-28T18:16:07.412Z,27.83
2018-11-28T18:18:35.549Z,28.23
2018-11-28T18:21:03.684Z,27.93
2018-11-28T18:23:31.808Z,27.30
2018-11-28T18:26:00.372Z,27.30
2018-11-28T18:28:28.633Z,33.23
2018-11-28T18:30:56.760Z,31.37
2018-11-28T18:33:24.900Z,30.90
2018-11-28T18:35:53.035Z,29.60
2018-11-28T18:38:21.179Z,30.03
2018-11-28T18:40:49.357Z,29.90
2018-11-28T18:43:17.517Z,29.13
2018-11-28T18:45:48.468Z,32.80
2018-11-28T18:48:16.600Z,25.90
2018-11-28T18:50:44.760Z,30.63
2018-11-28T18:53:12.980Z,29.53
2018-11-28T18:55:41.156Z,25.40
2018-11-28T18:58:10.565Z,25.43
2018-11-28T19:00:38.700Z,31.47
2018-11-28T19:03:07.470Z,32.10
2018-11-28T19:05:35.848Z,33.57
2018-11-28T19:08:04.008Z,31.40
2018-11-28T19:10:32.178Z,22.37
2018-11-28T19:13:00.308Z,21.40
2018-11-28T19:15:29.075Z,29.73
2018-11-28T19:17:58.045Z,26.83
2018-11-28T19:20:26.193Z,25.57
2018-11-28T19:22:55.204Z,18.40
2018-11-28T19:25:25.445Z,19.80
2018-11-28T19:27:53.610Z,20.20
2018-11-28T19:30:39.141Z,22.30
2018-11-28T19:33:09.644Z,21.43
2018-11-28T19:35:37.797Z,19.30
2018-11-28T19:38:07.931Z,19.30
2018-11-28T19:40:55.676Z,21.50
2018-11-28T19:43:23.873Z,16.80
2018-11-28T19:45:52.019Z,20.10
2018-11-28T19:48:20.195Z,19.63
2018-11-28T19:50:48.434Z,22.73
2018-11-28T19:53:16.816Z,18.57
2018-11-28T19:55:44.960Z,20.93
2018-11-28T19:58:13.113Z,17.77
2018-11-28T20:00:45.476Z,18.57
2018-11-28T20:03:13.676Z,16.60
2018-11-28T20:05:41.909Z,18.57
2018-11-28T20:08:10.069Z,18.20
2018-11-28T20:10:38.260Z,19.23
2018-11-28T20:13:08.003Z,19.23
2018-11-28T20:15:36.585Z,19.50
2018-11-28T20:18:05.348Z,21.23
2018-11-28T20:20:33.525Z,19.47
2018-11-28T20:23:01.696Z,17.43
2018-11-28T20:25:29.877Z,19.50
2018-11-28T20:27:59.928Z,20.00
2018-11-28T20:30:33.636Z,19.23
2018-11-28T20:33:01.893Z,17.90
2018-11-28T20:35:30.102Z,19.60
2018-11-28T20:37:58.949Z,16.33
2018-11-28T20:40:27.165Z,21.17
2018-11-28T20:42:55.993Z,15.97
2018-11-28T20:45:24.149Z,20.13
2018-11-28T20:47:52.309Z,15.57
2018-11-28T20:50:28.265Z,20.00
2018-11-28T20:52:59.776Z,16.47
2018-11-28T20:55:27.929Z,14.30
2018-11-28T20:57:56.092Z,19.70
2018-11-28T21:00:25.061Z,19.03
2018-11-28T21:02:53.201Z,17.30
2018-11-28T21:05:21.367Z,18.43
2018-11-28T21:07:49.501Z,15.83
2018-11-28T21:10:22.958Z,23.53
2018-11-28T21:12:51.075Z,19.30
2018-11-28T21:15:19.243Z,18.17
2018-11-28T21:17:47.756Z,18.13
2018-11-28T21:20:16.941Z,17.97
2018-11-28T21:22:46.641Z,20.73
2018-11-28T21:25:14.792Z,18.50
2018-11-28T21:27:42.960Z,19.83
2018-11-28T21:30:13.733Z,16.57
2018-11-28T21:32:42.304Z,16.00
2018-11-28T21:35:16.940Z,17.37
2018-11-28T21:37:45.106Z,15.30
2018-11-28T21:40:13.363Z,17.77
2018-11-28T21:42:41.514Z,15.87
2018-11-28T21:45:12.752Z,17.00
2018-11-28T21:47:40.956Z,16.07
2018-11-28T21:50:13.280Z,17.57
2018-11-28T21:52:41.437Z,16.50
2018-11-28T21:55:10.779Z,16.67
2018-11-28T21:57:38.956Z,17.60
2018-11-28T22:00:13.339Z,17.27
2018-11-28T22:02:41.519Z,16.30
2018-11-28T22:05:10.743Z,16.40
2018-11-28T22:07:38.906Z,16.03
2018-11-28T22:10:08.936Z,16.93
2018-11-28T22:12:37.095Z,24.93
2018-11-28T22:15:07.948Z,16.30
2018-11-28T22:17:36.148Z,16.63
2018-11-28T22:20:04.463Z,17.33
2018-11-28T22:22:32.620Z,20.23
2018-11-28T22:25:00.775Z,19.57
2018-11-28T22:27:28.930Z,17.23
2018-11-28T22:29:57.091Z,17.37
2018-11-28T22:32:25.223Z,16.53
2018-11-28T22:34:53.380Z,18.00
2018-11-28T22:37:21.524Z,13.80
2018-11-28T22:39:49.680Z,17.73
2018-11-28T22:42:17.824Z,17.47
2018-11-28T22:44:46.066Z,15.43
2018-11-28T22:47:14.205Z,17.20
2018-11-28T22:49:42.371Z,16.37
2018-11-28T22:52:10.520Z,13.90
2018-11-28T22:54:38.674Z,17.00
2018-11-28T22:57:06.828Z,16.20
2018-11-28T22:59:34.980Z,15.90
2018-11-28T23:02:39.644Z,17.77
2018-11-28T23:05:07.801Z,16.10
2018-11-28T23:07:35.940Z,19.53
2018-11-28T23:10:04.582Z,15.33
2018-11-28T23:12:32.712Z,17.83
2018-11-28T23:15:00.878Z,16.50
2018-11-28T23:17:29.017Z,14.77
2018-11-28T23:19:57.164Z,13.00
2018-11-28T23:22:25.304Z,13.20
2018-11-28T23:24:53.464Z,14.80
2018-11-28T23:27:21.604Z,15.33
2018-11-28T23:29:49.752Z,13.90
2018-11-28T23:32:17.911Z,15.53
2018-11-28T23:34:46.063Z,14.80
2018-11-28T23:37:14.209Z,13.00
2018-11-28T23:39:42.356Z,16.83
2018-11-28T23:42:10.496Z,14.30
2018-11-28T23:44:38.653Z,14.20
2018-11-28T23:47:06.819Z,13.97
2018-11-28T23:49:35.235Z,16.13
2018-11-28T23:52:03.393Z,14.03
2018-11-28T23:54:31.527Z,16.60
2018-11-28T23:56:59.657Z,15.20
2018-11-28T23:59:27.787Z,17.20
